IN-0037 weather

Public forecast

Using degrees Celsius for public forecast. Weather courtesy of forecast.io.

Closest aviation weather report (METAR) to Namchi Helipad

Closest report is Bagdogra Airport, 28.6 nm (52.9 km) S. Retrieved 2020/08/15 07:30 UTC (27 minutes ago):

VEBD 150730Z 05006KT 6000 SCT015 FEW025TCU SCT030 BKN080 31/25 Q0999 TEMPO TSRA

Closest aviation forecast (TAF) to Namchi Helipad

Closest forecast is Bagdogra Airport, 28.6 nm (52.9 km) S. Retrieved 2020/08/15 06:30 UTC (1 hour ago):

TAF VEBD 150330Z 1506/1518 09005KT 6000 SCT025 SCT090 TEMPO 1506/1508 4000 RA SCT025 BKN080 TEMPO 1513/1515 3000 TSRA SCT025 FEWCB030 BKN080